Terminal Aerodrome Forecast
Issued by NWS

Home | Current Version | Previous Version | Text Only | Print | Product List | Glossary On
Versions: 1 2 3 4 5 6 7 8 9 10 11 12 13 14 15 16 17 18 19 20 21 22 23
000
FTUS41 KPBZ 221700
TAFFKL
TAF
KFKL 221728Z 2218/2318 20005KT P6SM FEW035 SCT040
     FM230900 VRB03KT 3SM BR SCT030
     FM231300 22008KT P6SM BKN035
     FM231500 26012G18KT 5SM -SHRA VCTS BKN035CB
      AMD LTD TO CLD VIS AND WIND=

USA.gov is the U.S. government's official web portal to all federal, state and local government web resources and services.